sensor_id;sensor_type;location;lat;lon;timestamp;temperature;humidity
5808;DHT22;2930;42.678;23.312;2022-12-07T00:01:42;7.50;88.10
5808;DHT22;2930;42.678;23.312;2022-12-07T00:04:12;7.60;88.30
5808;DHT22;2930;42.678;23.312;2022-12-07T00:06:43;7.60;88.20
5808;DHT22;2930;42.678;23.312;2022-12-07T00:09:14;7.60;88.30
5808;DHT22;2930;42.678;23.312;2022-12-07T00:11:41;7.50;88.10
5808;DHT22;2930;42.678;23.312;2022-12-07T00:14:10;7.40;87.90
5808;DHT22;2930;42.678;23.312;2022-12-07T00:16:36;7.40;88.00
5808;DHT22;2930;42.678;23.312;2022-12-07T00:19:03;7.40;88.00
5808;DHT22;2930;42.678;23.312;2022-12-07T00:21:33;7.40;88.00
5808;DHT22;2930;42.678;23.312;2022-12-07T00:24:00;7.40;88.30
5808;DHT22;2930;42.678;23.312;2022-12-07T00:26:28;7.40;88.20
5808;DHT22;2930;42.678;23.312;2022-12-07T00:29:00;7.40;88.00
5808;DHT22;2930;42.678;23.312;2022-12-07T00:31:28;7.40;88.00
5808;DHT22;2930;42.678;23.312;2022-12-07T00:33:55;7.40;88.20
5808;DHT22;2930;42.678;23.312;2022-12-07T00:36:22;7.40;88.20
5808;DHT22;2930;42.678;23.312;2022-12-07T00:38:48;7.40;88.10
5808;DHT22;2930;42.678;23.312;2022-12-07T00:41:22;7.40;88.10
5808;DHT22;2930;42.678;23.312;2022-12-07T00:43:49;7.40;88.10
5808;DHT22;2930;42.678;23.312;2022-12-07T00:46:16;7.40;88.30
5808;DHT22;2930;42.678;23.312;2022-12-07T00:48:42;7.50;88.20
5808;DHT22;2930;42.678;23.312;2022-12-07T00:51:09;7.50;88.30
5808;DHT22;2930;42.678;23.312;2022-12-07T00:53:37;7.50;88.40
5808;DHT22;2930;42.678;23.312;2022-12-07T00:56:07;7.50;88.30
5808;DHT22;2930;42.678;23.312;2022-12-07T00:58:33;7.50;88.30
5808;DHT22;2930;42.678;23.312;2022-12-07T01:01:03;7.50;88.40
5808;DHT22;2930;42.678;23.312;2022-12-07T01:03:29;7.50;88.30
5808;DHT22;2930;42.678;23.312;2022-12-07T01:05:56;7.50;88.30
5808;DHT22;2930;42.678;23.312;2022-12-07T01:08:23;7.50;88.40
5808;DHT22;2930;42.678;23.312;2022-12-07T01:10:56;7.50;88.70
5808;DHT22;2930;42.678;23.312;2022-12-07T01:13:22;7.50;88.50
5808;DHT22;2930;42.678;23.312;2022-12-07T01:15:48;7.50;88.50
5808;DHT22;2930;42.678;23.312;2022-12-07T01:18:13;7.50;88.30
5808;DHT22;2930;42.678;23.312;2022-12-07T01:20:39;7.50;88.40
5808;DHT22;2930;42.678;23.312;2022-12-07T01:23:05;7.50;88.60
5808;DHT22;2930;42.678;23.312;2022-12-07T01:25:31;7.50;88.30
5808;DHT22;2930;42.678;23.312;2022-12-07T01:28:00;7.40;88.40
5808;DHT22;2930;42.678;23.312;2022-12-07T01:30:25;7.40;88.50
5808;DHT22;2930;42.678;23.312;2022-12-07T01:32:51;7.40;88.40
5808;DHT22;2930;42.678;23.312;2022-12-07T01:35:17;7.40;88.40
5808;DHT22;2930;42.678;23.312;2022-12-07T01:37:42;7.40;88.40
5808;DHT22;2930;42.678;23.312;2022-12-07T01:40:09;7.40;88.30
5808;DHT22;2930;42.678;23.312;2022-12-07T01:42:35;7.40;88.30
5808;DHT22;2930;42.678;23.312;2022-12-07T01:45:36;7.40;88.40
5808;DHT22;2930;42.678;23.312;2022-12-07T01:48:03;7.40;88.50
5808;DHT22;2930;42.678;23.312;2022-12-07T01:50:29;7.40;88.40
5808;DHT22;2930;42.678;23.312;2022-12-07T01:53:00;7.40;88.60
5808;DHT22;2930;42.678;23.312;2022-12-07T01:55:27;7.40;88.40
5808;DHT22;2930;42.678;23.312;2022-12-07T01:57:54;7.40;88.50
5808;DHT22;2930;42.678;23.312;2022-12-07T02:00:20;7.40;88.60
5808;DHT22;2930;42.678;23.312;2022-12-07T02:05:40;7.40;88.60
5808;DHT22;2930;42.678;23.312;2022-12-07T02:08:07;7.40;88.50
5808;DHT22;2930;42.678;23.312;2022-12-07T02:10:34;7.30;88.60
5808;DHT22;2930;42.678;23.312;2022-12-07T02:13:13;7.30;88.60
5808;DHT22;2930;42.678;23.312;2022-12-07T02:27:38;7.30;89.10
5808;DHT22;2930;42.678;23.312;2022-12-07T02:30:09;7.30;89.00
5808;DHT22;2930;42.678;23.312;2022-12-07T02:35:42;7.30;89.10
5808;DHT22;2930;42.678;23.312;2022-12-07T02:38:14;7.30;89.50
5808;DHT22;2930;42.678;23.312;2022-12-07T02:40:48;7.30;89.30
5808;DHT22;2930;42.678;23.312;2022-12-07T02:43:38;7.20;89.20
5808;DHT22;2930;42.678;23.312;2022-12-07T02:46:09;7.20;89.20
5808;DHT22;2930;42.678;23.312;2022-12-07T02:48:37;7.20;89.40
5808;DHT22;2930;42.678;23.312;2022-12-07T02:51:04;7.10;89.50
5808;DHT22;2930;42.678;23.312;2022-12-07T02:53:36;7.10;89.30
5808;DHT22;2930;42.678;23.312;2022-12-07T03:07:01;7.00;89.70
5808;DHT22;2930;42.678;23.312;2022-12-07T03:09:46;7.00;89.70
5808;DHT22;2930;42.678;23.312;2022-12-07T03:12:22;6.90;90.20
5808;DHT22;2930;42.678;23.312;2022-12-07T03:15:03;6.90;90.40
5808;DHT22;2930;42.678;23.312;2022-12-07T03:17:32;6.90;90.30
5808;DHT22;2930;42.678;23.312;2022-12-07T03:20:02;6.80;90.10
5808;DHT22;2930;42.678;23.312;2022-12-07T03:22:32;6.70;89.90
5808;DHT22;2930;42.678;23.312;2022-12-07T03:25:04;6.70;89.90
5808;DHT22;2930;42.678;23.312;2022-12-07T03:27:52;6.70;89.80
5808;DHT22;2930;42.678;23.312;2022-12-07T03:30:24;6.70;89.80
5808;DHT22;2930;42.678;23.312;2022-12-07T03:33:07;6.70;90.20
5808;DHT22;2930;42.678;23.312;2022-12-07T03:35:39;6.70;90.40
5808;DHT22;2930;42.678;23.312;2022-12-07T03:38:19;6.70;90.50
5808;DHT22;2930;42.678;23.312;2022-12-07T03:43:31;6.70;90.20
5808;DHT22;2930;42.678;23.312;2022-12-07T03:46:14;6.70;90.40
5808;DHT22;2930;42.678;23.312;2022-12-07T03:49:04;6.70;90.30
5808;DHT22;2930;42.678;23.312;2022-12-07T03:54:39;6.70;90.50
5808;DHT22;2930;42.678;23.312;2022-12-07T03:57:08;6.70;90.50
5808;DHT22;2930;42.678;23.312;2022-12-07T03:59:34;6.70;90.50
5808;DHT22;2930;42.678;23.312;2022-12-07T04:02:05;6.70;90.60
5808;DHT22;2930;42.678;23.312;2022-12-07T04:04:31;6.70;90.60
5808;DHT22;2930;42.678;23.312;2022-12-07T04:06:57;6.80;90.70
5808;DHT22;2930;42.678;23.312;2022-12-07T04:09:23;6.80;90.80
5808;DHT22;2930;42.678;23.312;2022-12-07T04:11:51;6.80;90.80
5808;DHT22;2930;42.678;23.312;2022-12-07T04:14:16;6.80;90.70
5808;DHT22;2930;42.678;23.312;2022-12-07T04:16:58;6.80;90.70
5808;DHT22;2930;42.678;23.312;2022-12-07T04:19:26;6.80;90.50
5808;DHT22;2930;42.678;23.312;2022-12-07T04:21:52;6.70;90.50
5808;DHT22;2930;42.678;23.312;2022-12-07T04:24:19;6.80;90.60
5808;DHT22;2930;42.678;23.312;2022-12-07T04:26:45;6.80;90.50
5808;DHT22;2930;42.678;23.312;2022-12-07T04:29:12;6.70;90.60
5808;DHT22;2930;42.678;23.312;2022-12-07T04:31:38;6.70;90.40
5808;DHT22;2930;42.678;23.312;2022-12-07T04:34:04;6.70;90.40
5808;DHT22;2930;42.678;23.312;2022-12-07T04:36:32;6.70;90.40
5808;DHT22;2930;42.678;23.312;2022-12-07T04:38:58;6.70;90.40
5808;DHT22;2930;42.678;23.312;2022-12-07T04:41:25;6.70;90.40
5808;DHT22;2930;42.678;23.312;2022-12-07T04:44:01;6.70;90.30
5808;DHT22;2930;42.678;23.312;2022-12-07T04:46:29;6.70;90.30
5808;DHT22;2930;42.678;23.312;2022-12-07T04:48:55;6.70;90.30
5808;DHT22;2930;42.678;23.312;2022-12-07T04:51:25;6.70;90.30
5808;DHT22;2930;42.678;23.312;2022-12-07T04:53:51;6.60;90.30
5808;DHT22;2930;42.678;23.312;2022-12-07T04:56:18;6.60;90.30
5808;DHT22;2930;42.678;23.312;2022-12-07T04:58:45;6.60;90.50
5808;DHT22;2930;42.678;23.312;2022-12-07T05:01:12;6.60;90.50
5808;DHT22;2930;42.678;23.312;2022-12-07T05:03:38;6.60;90.20
5808;DHT22;2930;42.678;23.312;2022-12-07T05:06:04;6.50;90.30
5808;DHT22;2930;42.678;23.312;2022-12-07T05:08:31;6.50;90.30
5808;DHT22;2930;42.678;23.312;2022-12-07T05:10:57;6.50;90.40
5808;DHT22;2930;42.678;23.312;2022-12-07T05:13:22;6.50;90.50
5808;DHT22;2930;42.678;23.312;2022-12-07T05:15:48;6.50;90.50
5808;DHT22;2930;42.678;23.312;2022-12-07T05:18:14;6.50;90.50
5808;DHT22;2930;42.678;23.312;2022-12-07T05:20:42;6.40;90.90
5808;DHT22;2930;42.678;23.312;2022-12-07T05:23:07;6.40;90.90
5808;DHT22;2930;42.678;23.312;2022-12-07T05:25:33;6.50;91.40
5808;DHT22;2930;42.678;23.312;2022-12-07T05:27:59;6.40;91.20
5808;DHT22;2930;42.678;23.312;2022-12-07T05:30:26;6.50;91.70
5808;DHT22;2930;42.678;23.312;2022-12-07T05:35:18;6.40;92.00
5808;DHT22;2930;42.678;23.312;2022-12-07T05:37:45;6.40;91.80
5808;DHT22;2930;42.678;23.312;2022-12-07T05:42:40;6.40;91.90
5808;DHT22;2930;42.678;23.312;2022-12-07T05:45:07;6.30;91.70
5808;DHT22;2930;42.678;23.312;2022-12-07T05:47:33;6.30;91.60
5808;DHT22;2930;42.678;23.312;2022-12-07T05:49:59;6.30;91.70
5808;DHT22;2930;42.678;23.312;2022-12-07T05:52:24;6.30;91.70
5808;DHT22;2930;42.678;23.312;2022-12-07T05:54:51;6.30;91.60
5808;DHT22;2930;42.678;23.312;2022-12-07T05:57:17;6.30;91.50
5808;DHT22;2930;42.678;23.312;2022-12-07T05:59:43;6.40;91.50
5808;DHT22;2930;42.678;23.312;2022-12-07T06:02:12;6.40;91.50
5808;DHT22;2930;42.678;23.312;2022-12-07T06:04:39;6.40;91.60
5808;DHT22;2930;42.678;23.312;2022-12-07T06:07:06;6.50;91.50
5808;DHT22;2930;42.678;23.312;2022-12-07T06:09:32;6.50;91.60
5808;DHT22;2930;42.678;23.312;2022-12-07T06:11:59;6.50;91.70
5808;DHT22;2930;42.678;23.312;2022-12-07T06:14:43;6.60;91.60
5808;DHT22;2930;42.678;23.312;2022-12-07T06:17:11;6.60;91.60
5808;DHT22;2930;42.678;23.312;2022-12-07T06:19:39;6.60;91.50
5808;DHT22;2930;42.678;23.312;2022-12-07T06:22:05;6.60;91.60
5808;DHT22;2930;42.678;23.312;2022-12-07T06:24:32;6.60;91.50
5808;DHT22;2930;42.678;23.312;2022-12-07T06:26:58;6.60;91.50
5808;DHT22;2930;42.678;23.312;2022-12-07T06:29:24;6.70;91.60
5808;DHT22;2930;42.678;23.312;2022-12-07T06:31:50;6.70;91.60
5808;DHT22;2930;42.678;23.312;2022-12-07T06:34:18;6.70;91.80
5808;DHT22;2930;42.678;23.312;2022-12-07T06:36:44;6.80;91.90
5808;DHT22;2930;42.678;23.312;2022-12-07T06:39:10;6.90;91.80
5808;DHT22;2930;42.678;23.312;2022-12-07T06:41:39;6.90;91.70
5808;DHT22;2930;42.678;23.312;2022-12-07T06:44:05;6.90;91.70
5808;DHT22;2930;42.678;23.312;2022-12-07T06:46:31;6.90;91.60
5808;DHT22;2930;42.678;23.312;2022-12-07T06:48:57;6.90;91.70
5808;DHT22;2930;42.678;23.312;2022-12-07T06:51:23;6.90;91.70
5808;DHT22;2930;42.678;23.312;2022-12-07T06:53:50;7.00;91.80
5808;DHT22;2930;42.678;23.312;2022-12-07T06:56:16;7.00;91.80
5808;DHT22;2930;42.678;23.312;2022-12-07T06:58:42;7.10;91.70
5808;DHT22;2930;42.678;23.312;2022-12-07T07:01:12;7.10;91.70
5808;DHT22;2930;42.678;23.312;2022-12-07T07:03:38;7.20;91.70
5808;DHT22;2930;42.678;23.312;2022-12-07T07:06:05;7.20;91.70
5808;DHT22;2930;42.678;23.312;2022-12-07T07:08:30;7.30;91.60
5808;DHT22;2930;42.678;23.312;2022-12-07T07:10:56;7.30;91.60
5808;DHT22;2930;42.678;23.312;2022-12-07T07:13:22;7.30;91.50
5808;DHT22;2930;42.678;23.312;2022-12-07T07:15:48;7.40;91.50
5808;DHT22;2930;42.678;23.312;2022-12-07T07:18:13;7.40;91.40
5808;DHT22;2930;42.678;23.312;2022-12-07T07:20:40;7.40;91.40
5808;DHT22;2930;42.678;23.312;2022-12-07T07:23:05;7.50;91.40
5808;DHT22;2930;42.678;23.312;2022-12-07T07:25:31;7.50;91.40
5808;DHT22;2930;42.678;23.312;2022-12-07T07:27:57;7.60;91.40
5808;DHT22;2930;42.678;23.312;2022-12-07T07:30:23;7.60;91.30
5808;DHT22;2930;42.678;23.312;2022-12-07T07:32:48;7.70;91.40
5808;DHT22;2930;42.678;23.312;2022-12-07T07:35:14;7.70;91.40
5808;DHT22;2930;42.678;23.312;2022-12-07T07:37:40;7.80;91.20
5808;DHT22;2930;42.678;23.312;2022-12-07T07:40:07;7.80;91.00
5808;DHT22;2930;42.678;23.312;2022-12-07T07:42:33;7.80;91.00
5808;DHT22;2930;42.678;23.312;2022-12-07T07:44:59;7.90;90.90
5808;DHT22;2930;42.678;23.312;2022-12-07T07:47:25;7.90;91.20
5808;DHT22;2930;42.678;23.312;2022-12-07T07:49:50;7.90;90.90
5808;DHT22;2930;42.678;23.312;2022-12-07T07:52:16;8.00;91.00
5808;DHT22;2930;42.678;23.312;2022-12-07T07:54:41;8.00;91.00
5808;DHT22;2930;42.678;23.312;2022-12-07T07:57:07;8.10;91.20
5808;DHT22;2930;42.678;23.312;2022-12-07T07:59:33;8.20;91.30
5808;DHT22;2930;42.678;23.312;2022-12-07T08:01:58;8.30;91.00
5808;DHT22;2930;42.678;23.312;2022-12-07T08:04:24;8.40;91.20
5808;DHT22;2930;42.678;23.312;2022-12-07T08:06:50;8.40;91.20
5808;DHT22;2930;42.678;23.312;2022-12-07T08:09:15;8.60;90.30
5808;DHT22;2930;42.678;23.312;2022-12-07T08:11:41;8.60;89.70
5808;DHT22;2930;42.678;23.312;2022-12-07T08:14:07;8.60;90.00
5808;DHT22;2930;42.678;23.312;2022-12-07T08:16:32;8.60;90.10
5808;DHT22;2930;42.678;23.312;2022-12-07T08:18:58;8.70;89.50
5808;DHT22;2930;42.678;23.312;2022-12-07T08:21:24;8.70;89.60
5808;DHT22;2930;42.678;23.312;2022-12-07T08:23:49;8.70;89.80
5808;DHT22;2930;42.678;23.312;2022-12-07T08:26:16;8.70;89.90
5808;DHT22;2930;42.678;23.312;2022-12-07T08:28:42;8.80;89.90
5808;DHT22;2930;42.678;23.312;2022-12-07T08:31:12;8.90;89.80
5808;DHT22;2930;42.678;23.312;2022-12-07T08:33:38;9.00;89.60
5808;DHT22;2930;42.678;23.312;2022-12-07T08:36:06;9.00;89.40
5808;DHT22;2930;42.678;23.312;2022-12-07T08:38:34;9.10;89.40
5808;DHT22;2930;42.678;23.312;2022-12-07T08:41:00;9.10;89.20
5808;DHT22;2930;42.678;23.312;2022-12-07T08:43:26;9.20;89.20
5808;DHT22;2930;42.678;23.312;2022-12-07T08:48:31;9.30;88.60
5808;DHT22;2930;42.678;23.312;2022-12-07T08:50:58;9.30;87.60
5808;DHT22;2930;42.678;23.312;2022-12-07T08:53:23;9.30;87.80
5808;DHT22;2930;42.678;23.312;2022-12-07T08:55:49;9.30;88.00
5808;DHT22;2930;42.678;23.312;2022-12-07T08:58:15;9.30;88.30
5808;DHT22;2930;42.678;23.312;2022-12-07T09:00:41;9.40;88.30
5808;DHT22;2930;42.678;23.312;2022-12-07T09:03:07;9.40;87.90
5808;DHT22;2930;42.678;23.312;2022-12-07T09:05:33;9.50;86.80
5808;DHT22;2930;42.678;23.312;2022-12-07T09:08:01;9.50;86.80
5808;DHT22;2930;42.678;23.312;2022-12-07T09:10:28;9.50;87.20
5808;DHT22;2930;42.678;23.312;2022-12-07T09:12:53;9.50;87.80
5808;DHT22;2930;42.678;23.312;2022-12-07T09:15:19;9.50;87.60
5808;DHT22;2930;42.678;23.312;2022-12-07T09:17:45;9.60;87.90
5808;DHT22;2930;42.678;23.312;2022-12-07T09:20:12;9.70;87.30
5808;DHT22;2930;42.678;23.312;2022-12-07T09:22:38;9.70;86.60
5808;DHT22;2930;42.678;23.312;2022-12-07T09:25:04;9.70;87.10
5808;DHT22;2930;42.678;23.312;2022-12-07T09:27:30;9.80;86.90
5808;DHT22;2930;42.678;23.312;2022-12-07T09:29:56;9.80;86.30
5808;DHT22;2930;42.678;23.312;2022-12-07T09:32:22;9.80;86.60
5808;DHT22;2930;42.678;23.312;2022-12-07T09:34:48;9.80;86.60
5808;DHT22;2930;42.678;23.312;2022-12-07T09:37:13;9.80;86.70
5808;DHT22;2930;42.678;23.312;2022-12-07T09:39:40;9.90;86.80
5808;DHT22;2930;42.678;23.312;2022-12-07T09:42:06;9.90;86.90
5808;DHT22;2930;42.678;23.312;2022-12-07T09:44:33;10.00;87.10
5808;DHT22;2930;42.678;23.312;2022-12-07T09:47:00;10.10;87.30
5808;DHT22;2930;42.678;23.312;2022-12-07T09:49:31;10.10;86.70
5808;DHT22;2930;42.678;23.312;2022-12-07T09:52:19;10.10;86.30
5808;DHT22;2930;42.678;23.312;2022-12-07T09:54:47;10.20;86.50
5808;DHT22;2930;42.678;23.312;2022-12-07T09:57:14;10.20;86.10
5808;DHT22;2930;42.678;23.312;2022-12-07T09:59:40;10.20;86.20
5808;DHT22;2930;42.678;23.312;2022-12-07T10:02:37;10.20;85.90
5808;DHT22;2930;42.678;23.312;2022-12-07T10:05:10;10.30;86.10
5808;DHT22;2930;42.678;23.312;2022-12-07T10:07:37;10.30;86.30
5808;DHT22;2930;42.678;23.312;2022-12-07T10:10:14;10.50;86.10
5808;DHT22;2930;42.678;23.312;2022-12-07T10:12:53;10.50;85.60
5808;DHT22;2930;42.678;23.312;2022-12-07T10:15:19;10.50;85.30
5808;DHT22;2930;42.678;23.312;2022-12-07T10:17:51;10.50;85.40
5808;DHT22;2930;42.678;23.312;2022-12-07T10:20:21;10.70;85.20
5808;DHT22;2930;42.678;23.312;2022-12-07T10:22:57;10.80;85.10
5808;DHT22;2930;42.678;23.312;2022-12-07T10:25:27;10.80;85.10
5808;DHT22;2930;42.678;23.312;2022-12-07T10:28:03;10.90;84.40
5808;DHT22;2930;42.678;23.312;2022-12-07T10:31:17;11.00;84.90
5808;DHT22;2930;42.678;23.312;2022-12-07T10:36:38;11.20;83.20
5808;DHT22;2930;42.678;23.312;2022-12-07T10:39:25;11.20;82.70
5808;DHT22;2930;42.678;23.312;2022-12-07T10:42:02;11.10;82.10
5808;DHT22;2930;42.678;23.312;2022-12-07T10:44:30;11.00;82.30
5808;DHT22;2930;42.678;23.312;2022-12-07T11:04:07;10.70;83.00
5808;DHT22;2930;42.678;23.312;2022-12-07T11:06:59;10.70;83.70
5808;DHT22;2930;42.678;23.312;2022-12-07T11:09:39;10.80;84.30
5808;DHT22;2930;42.678;23.312;2022-12-07T11:17:34;11.00;84.30
5808;DHT22;2930;42.678;23.312;2022-12-07T11:20:29;11.00;84.70
5808;DHT22;2930;42.678;23.312;2022-12-07T11:33:46;11.60;83.20
5808;DHT22;2930;42.678;23.312;2022-12-07T11:39:03;11.90;83.60
5808;DHT22;2930;42.678;23.312;2022-12-07T11:41:36;12.20;84.10
5808;DHT22;2930;42.678;23.312;2022-12-07T11:44:27;12.50;82.90
5808;DHT22;2930;42.678;23.312;2022-12-07T11:49:49;13.00;82.60
5808;DHT22;2930;42.678;23.312;2022-12-07T11:54:59;13.50;80.60
5808;DHT22;2930;42.678;23.312;2022-12-07T11:57:36;13.60;80.10
5808;DHT22;2930;42.678;23.312;2022-12-07T12:03:15;14.00;80.20
5808;DHT22;2930;42.678;23.312;2022-12-07T12:05:44;14.50;81.10
5808;DHT22;2930;42.678;23.312;2022-12-07T12:08:31;15.00;78.80
5808;DHT22;2930;42.678;23.312;2022-12-07T12:22:32;15.40;76.70
5808;DHT22;2930;42.678;23.312;2022-12-07T12:24:58;15.60;75.70
5808;DHT22;2930;42.678;23.312;2022-12-07T12:27:30;16.00;75.30
5808;DHT22;2930;42.678;23.312;2022-12-07T12:30:03;16.40;75.60
5808;DHT22;2930;42.678;23.312;2022-12-07T12:32:42;16.70;74.90
5808;DHT22;2930;42.678;23.312;2022-12-07T12:37:55;17.20;70.00
5808;DHT22;2930;42.678;23.312;2022-12-07T12:40:42;17.30;70.30
5808;DHT22;2930;42.678;23.312;2022-12-07T12:43:44;17.40;70.20
5808;DHT22;2930;42.678;23.312;2022-12-07T12:51:47;18.20;69.60
5808;DHT22;2930;42.678;23.312;2022-12-07T12:54:26;18.70;69.70
5808;DHT22;2930;42.678;23.312;2022-12-07T13:02:21;19.50;67.70
5808;DHT22;2930;42.678;23.312;2022-12-07T13:10:46;19.80;64.80
5808;DHT22;2930;42.678;23.312;2022-12-07T13:15:44;19.60;62.90
5808;DHT22;2930;42.678;23.312;2022-12-07T13:23:56;19.60;62.10
5808;DHT22;2930;42.678;23.312;2022-12-07T13:26:52;19.60;63.10
5808;DHT22;2930;42.678;23.312;2022-12-07T13:29:21;19.60;62.90
5808;DHT22;2930;42.678;23.312;2022-12-07T13:31:50;19.50;62.60
5808;DHT22;2930;42.678;23.312;2022-12-07T13:34:37;19.60;65.20
5808;DHT22;2930;42.678;23.312;2022-12-07T13:39:55;19.00;63.40
5808;DHT22;2930;42.678;23.312;2022-12-07T13:42:29;18.70;63.10
5808;DHT22;2930;42.678;23.312;2022-12-07T13:44:56;18.40;65.40
5808;DHT22;2930;42.678;23.312;2022-12-07T13:47:32;18.30;64.40
5808;DHT22;2930;42.678;23.312;2022-12-07T13:50:00;17.80;64.20
5808;DHT22;2930;42.678;23.312;2022-12-07T13:52:27;17.30;64.60
5808;DHT22;2930;42.678;23.312;2022-12-07T13:57:31;16.80;66.70
5808;DHT22;2930;42.678;23.312;2022-12-07T14:00:13;16.60;67.60
5808;DHT22;2930;42.678;23.312;2022-12-07T14:02:57;16.50;68.00
5808;DHT22;2930;42.678;23.312;2022-12-07T14:05:25;16.60;68.80
5808;DHT22;2930;42.678;23.312;2022-12-07T14:10:31;16.70;68.80
5808;DHT22;2930;42.678;23.312;2022-12-07T14:12:59;16.70;68.90
5808;DHT22;2930;42.678;23.312;2022-12-07T14:15:34;16.70;68.30
5808;DHT22;2930;42.678;23.312;2022-12-07T14:18:02;16.70;67.80
5808;DHT22;2930;42.678;23.312;2022-12-07T14:20:32;16.60;68.80
5808;DHT22;2930;42.678;23.312;2022-12-07T14:22:58;16.60;68.10
5808;DHT22;2930;42.678;23.312;2022-12-07T14:25:26;16.30;67.70
5808;DHT22;2930;42.678;23.312;2022-12-07T14:28:00;15.90;68.10
5808;DHT22;2930;42.678;23.312;2022-12-07T14:30:30;15.50;68.60
5808;DHT22;2930;42.678;23.312;2022-12-07T14:33:01;15.30;69.30
5808;DHT22;2930;42.678;23.312;2022-12-07T14:35:28;15.10;70.90
5808;DHT22;2930;42.678;23.312;2022-12-07T14:37:54;15.10;70.40
5808;DHT22;2930;42.678;23.312;2022-12-07T14:40:22;15.00;70.70
5808;DHT22;2930;42.678;23.312;2022-12-07T14:42:52;14.60;70.90
5808;DHT22;2930;42.678;23.312;2022-12-07T14:45:21;14.50;71.00
5808;DHT22;2930;42.678;23.312;2022-12-07T14:47:47;14.20;71.10
5808;DHT22;2930;42.678;23.312;2022-12-07T14:50:15;14.00;71.90
5808;DHT22;2930;42.678;23.312;2022-12-07T14:52:43;13.90;72.10
5808;DHT22;2930;42.678;23.312;2022-12-07T14:55:28;13.70;72.40
5808;DHT22;2930;42.678;23.312;2022-12-07T14:57:55;13.50;72.90
5808;DHT22;2930;42.678;23.312;2022-12-07T15:00:22;13.30;73.00
5808;DHT22;2930;42.678;23.312;2022-12-07T15:02:49;13.20;73.20
5808;DHT22;2930;42.678;23.312;2022-12-07T15:05:15;13.00;73.30
5808;DHT22;2930;42.678;23.312;2022-12-07T15:07:41;13.00;73.60
5808;DHT22;2930;42.678;23.312;2022-12-07T15:10:15;12.90;73.70
5808;DHT22;2930;42.678;23.312;2022-12-07T15:12:41;12.80;73.80
5808;DHT22;2930;42.678;23.312;2022-12-07T15:15:09;12.70;73.70
5808;DHT22;2930;42.678;23.312;2022-12-07T15:17:34;12.50;73.80
5808;DHT22;2930;42.678;23.312;2022-12-07T15:20:00;12.40;74.00
5808;DHT22;2930;42.678;23.312;2022-12-07T15:22:26;12.40;74.40
5808;DHT22;2930;42.678;23.312;2022-12-07T15:24:51;12.30;75.10
5808;DHT22;2930;42.678;23.312;2022-12-07T15:27:17;12.20;75.50
5808;DHT22;2930;42.678;23.312;2022-12-07T15:29:43;12.10;75.40
5808;DHT22;2930;42.678;23.312;2022-12-07T15:32:08;11.90;75.00
5808;DHT22;2930;42.678;23.312;2022-12-07T15:34:34;11.80;75.40
5808;DHT22;2930;42.678;23.312;2022-12-07T15:37:00;11.70;76.30
5808;DHT22;2930;42.678;23.312;2022-12-07T15:39:25;11.60;77.10
5808;DHT22;2930;42.678;23.312;2022-12-07T15:41:51;11.50;77.20
5808;DHT22;2930;42.678;23.312;2022-12-07T15:44:17;11.30;77.50
5808;DHT22;2930;42.678;23.312;2022-12-07T15:47:01;11.20;77.80
5808;DHT22;2930;42.678;23.312;2022-12-07T15:49:27;10.70;79.70
5808;DHT22;2930;42.678;23.312;2022-12-07T15:51:53;10.50;80.10
5808;DHT22;2930;42.678;23.312;2022-12-07T15:54:22;10.50;79.50
5808;DHT22;2930;42.678;23.312;2022-12-07T15:56:48;10.40;79.40
5808;DHT22;2930;42.678;23.312;2022-12-07T15:59:14;10.50;79.70
5808;DHT22;2930;42.678;23.312;2022-12-07T16:01:39;10.40;80.00
5808;DHT22;2930;42.678;23.312;2022-12-07T16:04:05;10.40;80.10
5808;DHT22;2930;42.678;23.312;2022-12-07T16:06:31;10.30;80.20
5808;DHT22;2930;42.678;23.312;2022-12-07T16:08:56;10.20;79.70
5808;DHT22;2930;42.678;23.312;2022-12-07T16:11:22;10.10;79.60
5808;DHT22;2930;42.678;23.312;2022-12-07T16:13:48;10.00;79.40
5808;DHT22;2930;42.678;23.312;2022-12-07T16:16:16;10.00;79.60
5808;DHT22;2930;42.678;23.312;2022-12-07T16:18:43;10.00;79.80
5808;DHT22;2930;42.678;23.312;2022-12-07T16:21:10;10.00;79.90
5808;DHT22;2930;42.678;23.312;2022-12-07T16:23:36;9.90;79.70
5808;DHT22;2930;42.678;23.312;2022-12-07T16:28:31;9.90;81.10
5808;DHT22;2930;42.678;23.312;2022-12-07T16:31:05;9.80;80.40
5808;DHT22;2930;42.678;23.312;2022-12-07T16:33:36;9.80;81.10
5808;DHT22;2930;42.678;23.312;2022-12-07T16:36:03;9.80;81.20
5808;DHT22;2930;42.678;23.312;2022-12-07T16:38:29;9.70;81.10
5808;DHT22;2930;42.678;23.312;2022-12-07T16:40:55;9.70;81.90
5808;DHT22;2930;42.678;23.312;2022-12-07T16:43:21;9.70;81.60
5808;DHT22;2930;42.678;23.312;2022-12-07T16:45:47;9.60;82.00
5808;DHT22;2930;42.678;23.312;2022-12-07T16:48:14;9.50;82.20
5808;DHT22;2930;42.678;23.312;2022-12-07T16:50:41;9.40;82.60
5808;DHT22;2930;42.678;23.312;2022-12-07T16:53:11;9.30;82.60
5808;DHT22;2930;42.678;23.312;2022-12-07T16:55:42;9.30;82.90
5808;DHT22;2930;42.678;23.312;2022-12-07T16:58:10;9.20;82.90
5808;DHT22;2930;42.678;23.312;2022-12-07T17:00:36;9.20;82.90
5808;DHT22;2930;42.678;23.312;2022-12-07T17:03:03;9.20;82.40
5808;DHT22;2930;42.678;23.312;2022-12-07T17:05:29;9.10;82.20
5808;DHT22;2930;42.678;23.312;2022-12-07T17:07:55;9.10;82.40
5808;DHT22;2930;42.678;23.312;2022-12-07T17:10:22;9.10;82.70
5808;DHT22;2930;42.678;23.312;2022-12-07T17:12:48;9.10;82.40
5808;DHT22;2930;42.678;23.312;2022-12-07T17:15:14;9.10;83.40
5808;DHT22;2930;42.678;23.312;2022-12-07T17:17:44;9.00;82.90
5808;DHT22;2930;42.678;23.312;2022-12-07T17:20:11;9.00;82.90
5808;DHT22;2930;42.678;23.312;2022-12-07T17:22:37;9.00;83.10
5808;DHT22;2930;42.678;23.312;2022-12-07T17:25:03;8.90;83.30
5808;DHT22;2930;42.678;23.312;2022-12-07T17:27:30;8.90;84.10
5808;DHT22;2930;42.678;23.312;2022-12-07T17:29:57;8.80;84.60
5808;DHT22;2930;42.678;23.312;2022-12-07T17:32:23;8.70;84.30
5808;DHT22;2930;42.678;23.312;2022-12-07T17:34:48;8.70;84.10
5808;DHT22;2930;42.678;23.312;2022-12-07T17:37:14;8.60;84.50
5808;DHT22;2930;42.678;23.312;2022-12-07T17:39:40;8.50;84.20
5808;DHT22;2930;42.678;23.312;2022-12-07T17:42:06;8.50;84.30
5808;DHT22;2930;42.678;23.312;2022-12-07T17:44:50;8.50;84.10
5808;DHT22;2930;42.678;23.312;2022-12-07T17:47:15;8.40;84.40
5808;DHT22;2930;42.678;23.312;2022-12-07T17:49:43;8.40;84.20
5808;DHT22;2930;42.678;23.312;2022-12-07T17:52:11;8.40;84.20
5808;DHT22;2930;42.678;23.312;2022-12-07T17:54:56;8.40;83.90
5808;DHT22;2930;42.678;23.312;2022-12-07T17:57:22;8.30;84.10
5808;DHT22;2930;42.678;23.312;2022-12-07T17:59:47;8.30;85.60
5808;DHT22;2930;42.678;23.312;2022-12-07T18:02:14;8.30;85.80
5808;DHT22;2930;42.678;23.312;2022-12-07T18:04:40;8.30;85.40
5808;DHT22;2930;42.678;23.312;2022-12-07T18:07:08;8.20;85.10
5808;DHT22;2930;42.678;23.312;2022-12-07T18:09:34;8.10;85.10
5808;DHT22;2930;42.678;23.312;2022-12-07T18:12:01;8.10;85.60
5808;DHT22;2930;42.678;23.312;2022-12-07T18:14:26;8.00;85.00
5808;DHT22;2930;42.678;23.312;2022-12-07T18:16:52;8.00;86.00
5808;DHT22;2930;42.678;23.312;2022-12-07T18:19:18;8.00;87.10
5808;DHT22;2930;42.678;23.312;2022-12-07T18:21:44;7.90;86.80
5808;DHT22;2930;42.678;23.312;2022-12-07T18:24:12;7.80;86.30
5808;DHT22;2930;42.678;23.312;2022-12-07T18:26:38;7.80;85.90
5808;DHT22;2930;42.678;23.312;2022-12-07T18:29:05;7.70;85.90